Time;durP1;ratioP1;P1;durP2;ratioP2;P2;SDS_P1;SDS_P2;PMS_P1;PMS_P2;Temp;Humidity;BMP_temperature;BMP_pressure;BME280_temperature;BME280_humidity;BME280_pressure;Samples;Min_cycle;Max_cycle;Signal;HPM_P1;HPM_P2
2021/08/21 00:00:38;;;;;;;5.60;5.05;;;17.50;99.90;;;;;;2071742;28;20486;-70
2021/08/21 00:01:38;;;;;;;6.40;5.32;;;17.50;99.90;;;;;;2071414;28;20406;-70
2021/08/21 00:02:39;;;;;;;5.65;5.07;;;17.50;99.90;;;;;;2071246;28;20029;-70
2021/08/21 00:03:39;;;;;;;5.50;5.00;;;17.40;99.90;;;;;;2071582;28;20542;-70
2021/08/21 00:04:40;;;;;;;6.15;5.47;;;17.40;99.90;;;;;;2071726;28;20041;-69
2021/08/21 00:05:40;;;;;;;5.57;5.07;;;17.40;99.90;;;;;;2071748;28;20033;-69
2021/08/21 00:06:42;;;;;;;7.05;4.80;;;17.40;99.90;;;;;;2071414;28;20053;-69
2021/08/21 00:07:43;;;;;;;5.90;5.30;;;17.40;99.90;;;;;;2070853;28;20403;-70
2021/08/21 00:08:43;;;;;;;5.20;4.70;;;17.40;99.90;;;;;;2071130;28;20022;-70
2021/08/21 00:09:46;;;;;;;5.93;5.05;;;17.40;99.90;;;;;;2071615;28;20104;-69
2021/08/21 00:10:46;;;;;;;5.25;4.47;;;17.40;99.90;;;;;;2071718;28;20044;-69
2021/08/21 00:11:47;;;;;;;6.03;5.00;;;17.40;99.90;;;;;;2071491;28;20373;-70
2021/08/21 00:12:48;;;;;;;5.78;4.97;;;17.30;99.90;;;;;;2072879;28;20081;-69
2021/08/21 00:13:48;;;;;;;5.40;4.82;;;17.30;99.90;;;;;;2066586;28;20105;-69
2021/08/21 00:14:49;;;;;;;4.90;4.50;;;17.30;99.90;;;;;;2069486;28;20033;-69
2021/08/21 00:15:51;;;;;;;6.07;5.45;;;17.30;99.90;;;;;;2068429;28;20046;-69
2021/08/21 00:16:51;;;;;;;5.68;5.15;;;17.30;99.90;;;;;;2070990;28;20018;-69
2021/08/21 00:17:53;;;;;;;6.43;5.15;;;17.30;99.90;;;;;;2071227;28;20026;-69
2021/08/21 00:18:54;;;;;;;5.07;4.57;;;17.30;99.90;;;;;;2071732;28;20495;-69
2021/08/21 00:19:54;;;;;;;6.80;6.10;;;17.30;99.90;;;;;;2071488;28;20026;-69
2021/08/21 00:20:55;;;;;;;5.55;4.65;;;17.20;99.90;;;;;;2071727;28;20504;-69
2021/08/21 00:21:55;;;;;;;5.43;4.75;;;17.20;99.90;;;;;;2071073;28;20018;-69
2021/08/21 00:22:56;;;;;;;6.45;5.85;;;17.20;99.90;;;;;;2071141;28;20056;-69
2021/08/21 00:23:57;;;;;;;6.72;6.03;;;17.20;99.90;;;;;;2071637;28;20125;-69
2021/08/21 00:24:57;;;;;;;6.20;5.53;;;17.20;99.90;;;;;;2071471;28;20026;-70
2021/08/21 00:25:58;;;;;;;5.65;5.15;;;17.20;99.90;;;;;;2071597;28;20061;-70
2021/08/21 00:26:58;;;;;;;10.15;5.88;;;17.20;99.90;;;;;;2071687;28;20064;-70
2021/08/21 00:27:59;;;;;;;5.80;5.30;;;17.20;99.90;;;;;;2071362;28;20030;-70
2021/08/21 00:28:59;;;;;;;6.60;5.78;;;17.20;99.90;;;;;;2073432;28;20436;-69
2021/08/21 00:30:00;;;;;;;6.25;5.65;;;17.20;99.90;;;;;;2071633;28;20458;-69
2021/08/21 00:31:01;;;;;;;5.70;5.22;;;17.20;99.90;;;;;;2071300;28;20025;-69
2021/08/21 00:32:03;;;;;;;8.77;5.88;;;17.20;99.90;;;;;;2071111;28;20014;-69
2021/08/21 00:33:04;;;;;;;5.70;5.20;;;17.20;99.90;;;;;;2071145;28;20034;-69
2021/08/21 00:34:05;;;;;;;6.63;5.95;;;17.20;99.90;;;;;;2071500;28;20017;-70
2021/08/21 00:35:07;;;;;;;5.78;4.95;;;17.10;99.90;;;;;;2071541;28;20138;-70
2021/08/21 00:36:07;;;;;;;6.35;5.75;;;17.20;99.90;;;;;;2071710;28;20026;-70
2021/08/21 00:37:08;;;;;;;6.22;5.57;;;17.10;99.90;;;;;;2071100;28;20049;-70
2021/08/21 00:38:08;;;;;;;8.00;5.97;;;17.10;99.90;;;;;;2071527;28;20026;-70
2021/08/21 00:39:09;;;;;;;10.50;6.65;;;17.10;99.90;;;;;;2071298;28;20058;-69
2021/08/21 00:40:10;;;;;;;6.95;6.25;;;17.10;99.90;;;;;;2071560;28;20034;-69
2021/08/21 00:41:11;;;;;;;5.40;4.88;;;17.10;99.90;;;;;;2071209;28;20021;-70
2021/08/21 00:42:11;;;;;;;5.57;5.00;;;17.10;99.90;;;;;;2071774;28;20026;-70
2021/08/21 00:43:12;;;;;;;6.50;5.90;;;17.10;99.90;;;;;;2070895;28;20080;-70
2021/08/21 00:44:12;;;;;;;5.88;5.38;;;17.10;99.90;;;;;;2071661;28;20038;-69
2021/08/21 00:45:13;;;;;;;8.23;5.55;;;17.10;99.90;;;;;;2074663;28;20071;-69
2021/08/21 00:46:14;;;;;;;5.95;5.28;;;17.10;99.90;;;;;;2071224;28;20386;-70
2021/08/21 00:47:16;;;;;;;7.07;6.38;;;17.00;99.90;;;;;;2071293;28;20129;-70
2021/08/21 00:48:17;;;;;;;5.72;5.20;;;17.00;99.90;;;;;;2071347;28;20421;-70
2021/08/21 00:49:18;;;;;;;5.10;4.70;;;17.00;99.90;;;;;;2071323;28;20150;-70
2021/08/21 00:50:19;;;;;;;5.32;4.80;;;17.00;99.90;;;;;;2071459;28;20097;-70
2021/08/21 00:51:19;;;;;;;5.75;5.05;;;17.00;99.90;;;;;;2071164;28;20355;-70
2021/08/21 00:52:21;;;;;;;8.82;6.10;;;17.00;99.90;;;;;;2071247;28;20029;-70
2021/08/21 00:53:22;;;;;;;10.70;6.47;;;17.00;99.90;;;;;;2071061;28;20028;-70
2021/08/21 00:54:22;;;;;;;7.07;6.40;;;17.00;99.90;;;;;;2071846;28;20488;-70
2021/08/21 00:55:24;;;;;;;6.68;5.47;;;17.00;99.90;;;;;;2070725;28;20041;-70
2021/08/21 00:56:24;;;;;;;7.05;5.78;;;17.00;99.90;;;;;;2071503;28;20548;-69
2021/08/21 00:57:25;;;;;;;6.20;5.60;;;17.00;99.90;;;;;;2071407;28;20034;-69
2021/08/21 00:58:27;;;;;;;6.25;5.65;;;17.00;99.90;;;;;;2071304;28;20045;-69
2021/08/21 00:59:33;;;;;;;6.38;5.78;;;16.90;99.90;;;;;;2071135;28;20674;-69
2021/08/21 01:00:34;;;;;;;6.97;6.28;;;17.00;99.90;;;;;;2071545;28;20122;-69
2021/08/21 01:01:34;;;;;;;7.15;5.97;;;16.90;99.90;;;;;;2074314;28;20516;-69
2021/08/21 01:02:36;;;;;;;7.25;6.22;;;16.90;99.90;;;;;;2071351;28;20092;-70
2021/08/21 01:03:36;;;;;;;6.13;5.47;;;16.90;99.90;;;;;;2071521;28;20034;-69
2021/08/21 01:04:48;;;;;;;7.22;6.28;;;16.90;99.90;;;;;;2071329;28;20030;-70
2021/08/21 01:05:49;;;;;;;6.32;5.82;;;16.90;99.90;;;;;;2071575;28;20037;-70
2021/08/21 01:06:49;;;;;;;7.13;6.53;;;16.90;99.90;;;;;;2071158;28;20482;-70
2021/08/21 01:07:50;;;;;;;7.15;6.45;;;16.80;99.90;;;;;;2071199;28;20062;-70
2021/08/21 01:08:51;;;;;;;8.68;6.50;;;16.90;99.90;;;;;;2072889;28;20397;-70
2021/08/21 01:09:51;;;;;;;6.43;5.80;;;16.80;99.90;;;;;;2073034;28;20091;-70
2021/08/21 01:10:52;;;;;;;6.82;6.18;;;16.90;99.90;;;;;;2072984;28;20488;-70
2021/08/21 01:11:52;;;;;;;8.95;7.03;;;16.80;99.90;;;;;;2072869;28;20662;-70
2021/08/21 01:12:54;;;;;;;7.70;7.00;;;16.80;99.90;;;;;;2072349;28;20034;-70
2021/08/21 01:13:54;;;;;;;6.20;5.60;;;16.80;99.90;;;;;;2073230;28;20034;-70
2021/08/21 01:14:55;;;;;;;6.68;6.03;;;16.80;99.90;;;;;;2073069;28;20026;-69
2021/08/21 01:15:56;;;;;;;7.65;6.65;;;16.80;99.90;;;;;;2072927;28;20088;-69
2021/08/21 01:16:56;;;;;;;11.45;6.65;;;16.80;99.90;;;;;;2072961;28;20026;-70
2021/08/21 01:17:57;;;;;;;6.85;5.78;;;16.80;99.90;;;;;;2075337;28;20092;-70
2021/08/21 01:18:59;;;;;;;6.75;6.13;;;16.80;99.90;;;;;;2072885;28;20030;-70
2021/08/21 01:19:59;;;;;;;6.05;5.53;;;16.80;99.90;;;;;;2072639;28;20699;-70
2021/08/21 01:21:01;;;;;;;7.05;5.72;;;16.70;99.90;;;;;;2073170;28;20052;-70
2021/08/21 01:22:03;;;;;;;8.40;5.85;;;16.80;99.90;;;;;;2072713;28;20033;-70
2021/08/21 01:23:04;;;;;;;6.97;5.45;;;16.70;99.90;;;;;;2072320;28;20061;-70
2021/08/21 01:24:05;;;;;;;6.28;5.60;;;16.70;99.90;;;;;;2068420;28;20018;-70
2021/08/21 01:25:14;;;;;;;7.05;6.45;;;16.70;99.90;;;;;;2072595;28;20378;-70
2021/08/21 01:26:15;;;;;;;6.78;6.18;;;16.80;99.90;;;;;;2072857;28;20080;-70
2021/08/21 01:27:21;;;;;;;7.38;6.50;;;16.70;99.90;;;;;;2072636;28;20076;-70
2021/08/21 01:28:21;;;;;;;7.53;6.82;;;16.70;99.90;;;;;;2071778;28;20490;-70
2021/08/21 01:29:23;;;;;;;6.82;6.22;;;16.70;99.90;;;;;;2072965;28;20386;-69
2021/08/21 01:30:23;;;;;;;7.43;6.55;;;16.70;99.90;;;;;;2072960;28;20873;-70
2021/08/21 01:31:24;;;;;;;6.88;6.25;;;16.70;99.90;;;;;;2072759;28;20093;-70
2021/08/21 01:32:26;;;;;;;7.30;6.68;;;16.70;99.90;;;;;;2072389;28;20117;-69
2021/08/21 01:33:26;;;;;;;7.00;6.28;;;16.70;99.90;;;;;;2072912;28;20105;-70
2021/08/21 01:34:27;;;;;;;8.18;7.30;;;16.70;99.90;;;;;;2074628;28;20026;-70
2021/08/21 01:35:28;;;;;;;7.50;6.80;;;16.70;99.90;;;;;;2072965;28;20476;-70
2021/08/21 01:36:39;;;;;;;8.27;6.78;;;16.60;99.90;;;;;;2072228;28;20105;-70
2021/08/21 01:37:39;;;;;;;7.10;6.50;;;16.60;99.90;;;;;;2072210;28;20034;-70
2021/08/21 01:38:58;;;;;;;7.28;6.57;;;16.60;99.90;;;;;;2072562;28;20062;-70
2021/08/21 01:39:59;;;;;;;8.00;6.72;;;16.60;99.90;;;;;;2072464;28;20033;-70
2021/08/21 01:41:00;;;;;;;7.00;6.20;;;16.60;99.90;;;;;;2072688;28;20037;-70
2021/08/21 01:42:02;;;;;;;7.32;6.72;;;16.50;99.90;;;;;;2072737;28;20033;-70
2021/08/21 01:43:03;;;;;;;7.80;6.90;;;16.60;99.90;;;;;;2072197;28;20029;-69
2021/08/21 01:44:11;;;;;;;8.02;7.32;;;16.50;99.90;;;;;;2072607;28;20046;-70
2021/08/21 01:45:13;;;;;;;6.70;5.97;;;16.60;99.90;;;;;;2072912;28;20064;-70
2021/08/21 01:46:14;;;;;;;7.07;6.38;;;16.50;99.90;;;;;;2073055;28;20034;-70
2021/08/21 01:47:16;;;;;;;7.07;6.47;;;16.50;99.90;;;;;;2072604;28;20061;-70
2021/08/21 01:48:17;;;;;;;7.88;7.00;;;16.50;99.90;;;;;;2074749;28;20026;-70
2021/08/21 01:49:22;;;;;;;7.60;6.78;;;16.50;99.90;;;;;;2071310;28;20029;-70
2021/08/21 01:50:23;;;;;;;8.40;7.47;;;16.50;99.90;;;;;;2072555;28;20084;-70
2021/08/21 01:51:23;;;;;;;11.35;7.43;;;16.50;99.90;;;;;;2068074;28;20085;-70
2021/08/21 01:52:27;;;;;;;7.65;6.82;;;16.50;99.90;;;;;;2072526;28;20389;-70
2021/08/21 01:53:29;;;;;;;7.50;6.72;;;16.50;99.90;;;;;;2071851;28;20030;-70
2021/08/21 01:54:30;;;;;;;7.15;6.45;;;16.50;99.90;;;;;;2072998;28;20071;-70
2021/08/21 01:55:31;;;;;;;6.97;6.30;;;16.50;99.90;;;;;;2072001;28;20394;-70
2021/08/21 01:56:52;;;;;;;6.78;6.18;;;16.40;99.90;;;;;;2072227;28;20030;-71
2021/08/21 01:57:53;;;;;;;7.72;7.03;;;16.40;99.90;;;;;;2072565;28;20417;-70
2021/08/21 01:58:53;;;;;;;9.32;7.72;;;16.40;99.90;;;;;;2072626;28;20026;-70
2021/08/21 01:59:54;;;;;;;8.80;7.40;;;16.40;99.90;;;;;;2072391;28;20045;-70
2021/08/21 02:00:54;;;;;;;8.77;7.22;;;16.40;99.90;;;;;;2073424;28;20032;-70
2021/08/21 02:01:56;;;;;;;7.63;6.95;;;16.40;99.90;;;;;;2073817;28;20398;-70
2021/08/21 02:02:57;;;;;;;7.47;6.78;;;16.40;99.90;;;;;;2073704;28;20466;-70
2021/08/21 02:03:57;;;;;;;6.85;6.25;;;16.40;99.90;;;;;;2074113;28;20026;-70
2021/08/21 02:04:58;;;;;;;7.72;6.43;;;16.40;99.90;;;;;;2073226;28;20018;-70
2021/08/21 02:05:59;;;;;;;7.45;6.75;;;16.40;99.90;;;;;;2073423;28;20026;-70
2021/08/21 02:06:59;;;;;;;7.60;6.80;;;16.40;99.90;;;;;;2071503;28;20099;-70
2021/08/21 02:08:00;;;;;;;6.95;6.25;;;16.40;99.90;;;;;;2073860;28;20751;-70
2021/08/21 02:09:00;;;;;;;7.10;6.03;;;16.40;99.90;;;;;;2073912;28;20049;-70
2021/08/21 02:10:03;;;;;;;7.25;6.55;;;16.40;99.90;;;;;;2073944;28;20026;-70
2021/08/21 02:11:03;;;;;;;6.53;5.82;;;16.40;99.90;;;;;;2074107;28;20034;-70
2021/08/21 02:12:06;;;;;;;7.03;6.40;;;16.30;99.90;;;;;;2073723;28;20068;-70
2021/08/21 02:13:06;;;;;;;8.90;7.10;;;16.30;99.90;;;;;;2073540;28;20119;-70
2021/08/21 02:14:07;;;;;;;8.10;6.60;;;16.30;99.90;;;;;;2073904;28;20033;-70
2021/08/21 02:15:10;;;;;;;8.00;7.28;;;16.30;99.90;;;;;;2075777;28;20522;-70
2021/08/21 02:16:11;;;;;;;8.10;7.30;;;16.30;99.90;;;;;;2080486;28;20120;-70
2021/08/21 02:17:11;;;;;;;9.45;8.15;;;16.30;99.90;;;;;;2073999;28;20029;-70
2021/08/21 02:18:12;;;;;;;8.60;7.38;;;16.30;99.90;;;;;;2073578;28;20423;-70
2021/08/21 02:19:12;;;;;;;7.72;6.88;;;16.30;99.90;;;;;;2073434;28;20425;-70
2021/08/21 02:20:14;;;;;;;8.10;7.30;;;16.30;99.90;;;;;;2072438;28;20094;-70
2021/08/21 02:21:16;;;;;;;8.88;7.97;;;16.30;99.90;;;;;;2073588;28;20033;-70
2021/08/21 02:22:17;;;;;;;9.27;8.35;;;16.30;99.90;;;;;;2073793;28;20022;-70
2021/08/21 02:23:18;;;;;;;9.25;8.13;;;16.30;99.90;;;;;;2073453;28;20113;-70
2021/08/21 02:24:24;;;;;;;7.53;6.93;;;16.30;99.90;;;;;;2073793;28;20382;-70
2021/08/21 02:25:24;;;;;;;7.97;7.13;;;16.30;99.90;;;;;;2073850;28;20136;-70
2021/08/21 02:26:27;;;;;;;7.65;6.95;;;16.30;99.90;;;;;;2073866;28;20030;-70
2021/08/21 02:27:35;;;;;;;9.30;7.75;;;16.30;99.90;;;;;;2073801;28;20080;-70
2021/08/21 02:28:37;;;;;;;9.38;7.40;;;16.30;99.90;;;;;;2073821;28;20037;-70
2021/08/21 02:29:37;;;;;;;7.57;6.80;;;16.30;99.90;;;;;;2071244;28;20071;-70
2021/08/21 02:30:41;;;;;;;9.40;7.70;;;16.30;99.90;;;;;;2073784;28;20030;-70
2021/08/21 02:31:41;;;;;;;8.68;7.32;;;16.20;99.90;;;;;;2073836;28;20446;-70
2021/08/21 02:32:42;;;;;;;8.30;7.40;;;16.30;99.90;;;;;;2073293;28;20390;-70
2021/08/21 02:33:42;;;;;;;7.80;7.10;;;16.30;99.90;;;;;;2073928;28;20482;-70
2021/08/21 02:34:43;;;;;;;8.27;7.47;;;16.30;99.90;;;;;;2074043;28;20560;-70
2021/08/21 02:35:44;;;;;;;7.30;6.68;;;16.30;99.90;;;;;;2071489;28;20109;-70
2021/08/21 02:36:45;;;;;;;8.32;6.72;;;16.30;99.90;;;;;;2073704;28;20025;-70
2021/08/21 02:37:46;;;;;;;7.45;6.65;;;16.30;99.90;;;;;;2073335;28;20030;-70
2021/08/21 02:38:46;;;;;;;8.73;7.93;;;16.30;99.90;;;;;;2076026;28;20041;-70
2021/08/21 02:39:47;;;;;;;8.48;7.60;;;16.30;99.90;;;;;;2079887;28;20037;-70
2021/08/21 02:40:48;;;;;;;7.13;6.53;;;16.30;99.90;;;;;;2073969;28;20060;-70
2021/08/21 02:41:49;;;;;;;8.13;7.13;;;16.30;99.90;;;;;;2072774;28;20531;-70
2021/08/21 02:42:50;;;;;;;8.20;7.00;;;16.20;99.90;;;;;;2072784;28;20556;-70
2021/08/21 02:43:50;;;;;;;8.35;6.82;;;16.30;99.90;;;;;;2073610;28;20034;-70
2021/08/21 02:44:51;;;;;;;9.18;7.70;;;16.20;99.90;;;;;;2073880;28;20037;-70
2021/08/21 02:45:52;;;;;;;8.70;6.53;;;16.20;99.90;;;;;;2073541;28;20029;-70
2021/08/21 02:46:52;;;;;;;8.07;7.38;;;16.20;99.90;;;;;;2073894;28;20442;-70
2021/08/21 02:47:53;;;;;;;8.63;7.78;;;16.20;99.90;;;;;;2073227;28;20018;-70
2021/08/21 02:48:53;;;;;;;8.60;7.82;;;16.20;99.90;;;;;;2073805;28;20033;-70
2021/08/21 02:49:54;;;;;;;10.57;8.20;;;16.20;99.90;;;;;;2073335;28;20057;-70
2021/08/21 02:50:54;;;;;;;9.68;6.88;;;16.20;99.90;;;;;;2073488;28;20044;-70
2021/08/21 02:51:55;;;;;;;7.70;6.82;;;16.20;99.90;;;;;;2073416;28;20021;-70
2021/08/21 02:52:56;;;;;;;8.05;7.35;;;16.20;99.90;;;;;;2074976;28;20022;-70
2021/08/21 02:53:56;;;;;;;7.60;6.93;;;16.20;99.90;;;;;;2076183;28;20030;-70
2021/08/21 02:54:57;;;;;;;8.93;7.93;;;16.20;99.90;;;;;;2073454;28;20030;-70
2021/08/21 02:55:57;;;;;;;9.27;8.20;;;16.10;99.90;;;;;;2073316;28;20040;-70
2021/08/21 02:56:58;;;;;;;7.88;7.18;;;16.20;99.90;;;;;;2073541;28;20386;-70
2021/08/21 02:57:58;;;;;;;9.02;8.20;;;16.20;99.90;;;;;;2073498;28;20489;-70
2021/08/21 02:58:59;;;;;;;9.75;7.70;;;16.20;99.90;;;;;;2073723;28;20026;-70
2021/08/21 02:59:59;;;;;;;7.90;7.13;;;16.20;99.90;;;;;;2073556;28;20030;-70
2021/08/21 03:01:00;;;;;;;8.18;7.38;;;16.20;99.90;;;;;;2073698;28;20038;-70
2021/08/21 03:02:01;;;;;;;6.75;6.15;;;16.20;99.90;;;;;;2072307;28;20481;-70
2021/08/21 03:03:01;;;;;;;7.95;7.18;;;16.10;99.90;;;;;;2071942;28;20103;-70
2021/08/21 03:04:02;;;;;;;8.63;7.78;;;16.10;99.90;;;;;;2072487;28;20459;-70
2021/08/21 03:05:03;;;;;;;7.97;7.03;;;16.10;99.90;;;;;;2072613;28;20021;-70
2021/08/21 03:06:04;;;;;;;8.07;7.38;;;16.10;99.90;;;;;;2071836;28;20470;-70
2021/08/21 03:07:04;;;;;;;7.72;6.95;;;16.10;99.90;;;;;;2069873;28;20391;-70
2021/08/21 03:08:06;;;;;;;7.50;6.80;;;16.10;99.90;;;;;;2077622;28;20032;-70
2021/08/21 03:09:06;;;;;;;8.63;7.75;;;16.10;99.90;;;;;;2072799;28;20025;-70
2021/08/21 03:10:08;;;;;;;7.88;7.18;;;16.10;99.90;;;;;;2072390;28;20180;-70
2021/08/21 03:11:10;;;;;;;7.32;6.63;;;16.10;99.90;;;;;;2071542;28;20033;-70
2021/08/21 03:12:10;;;;;;;7.38;6.25;;;16.10;99.90;;;;;;2072253;28;20398;-70
2021/08/21 03:13:11;;;;;;;7.03;6.32;;;16.10;99.90;;;;;;2071758;28;20034;-70
2021/08/21 03:14:11;;;;;;;10.20;7.10;;;16.10;99.90;;;;;;2072334;28;20061;-70
2021/08/21 03:15:12;;;;;;;7.40;6.50;;;16.10;99.90;;;;;;2071968;28;20524;-70
2021/08/21 03:16:12;;;;;;;7.97;7.15;;;16.10;99.90;;;;;;2072345;28;20017;-70
2021/08/21 03:17:13;;;;;;;9.68;8.68;;;16.10;99.90;;;;;;2072191;28;20045;-70
2021/08/21 03:18:13;;;;;;;9.43;7.07;;;16.10;99.90;;;;;;2071682;28;20021;-70
2021/08/21 03:19:14;;;;;;;8.60;7.35;;;16.00;99.90;;;;;;2072178;28;20030;-70
2021/08/21 03:20:15;;;;;;;9.90;7.55;;;16.00;99.90;;;;;;2072223;28;20133;-70
2021/08/21 03:21:15;;;;;;;8.27;7.47;;;16.00;99.90;;;;;;2071754;28;20489;-70
2021/08/21 03:22:16;;;;;;;8.23;7.45;;;16.00;99.90;;;;;;2071184;28;20037;-70
2021/08/21 03:23:16;;;;;;;9.15;8.25;;;16.00;99.90;;;;;;2071403;28;20041;-70
2021/08/21 03:24:17;;;;;;;7.05;6.45;;;16.00;99.90;;;;;;2069800;28;20030;-70
2021/08/21 03:25:18;;;;;;;8.52;7.30;;;16.00;99.90;;;;;;2071989;28;20057;-70
2021/08/21 03:26:18;;;;;;;8.32;7.50;;;16.00;99.90;;;;;;2071932;28;20026;-70
2021/08/21 03:27:19;;;;;;;8.38;7.45;;;16.00;99.90;;;;;;2071953;28;20030;-70
2021/08/21 03:28:19;;;;;;;8.70;6.88;;;16.00;99.90;;;;;;2072204;28;20030;-70
2021/08/21 03:29:20;;;;;;;7.47;6.68;;;16.00;99.90;;;;;;2072395;28;20026;-70
2021/08/21 03:30:20;;;;;;;8.00;7.28;;;16.00;99.90;;;;;;2071428;28;20026;-70
2021/08/21 03:31:21;;;;;;;8.35;7.35;;;15.90;99.90;;;;;;2070766;28;20032;-70
2021/08/21 03:32:21;;;;;;;9.73;7.75;;;15.90;99.90;;;;;;2065285;28;20065;-71
2021/08/21 03:33:22;;;;;;;9.25;7.95;;;15.90;99.90;;;;;;2071429;28;20116;-70
2021/08/21 03:34:24;;;;;;;8.52;7.72;;;15.90;99.90;;;;;;2075205;28;20084;-70
2021/08/21 03:35:25;;;;;;;8.60;7.75;;;15.90;99.90;;;;;;2080280;28;20047;-70
2021/08/21 03:36:26;;;;;;;8.23;7.50;;;15.90;99.90;;;;;;2072130;28;20072;-70
2021/08/21 03:37:27;;;;;;;8.52;6.90;;;15.90;99.90;;;;;;2071538;28;20030;-70
2021/08/21 03:38:27;;;;;;;8.65;7.63;;;15.90;99.90;;;;;;2071823;28;20025;-70
2021/08/21 03:39:28;;;;;;;8.50;7.65;;;15.90;99.90;;;;;;2071894;28;20025;-70
2021/08/21 03:40:29;;;;;;;11.77;8.60;;;15.90;99.90;;;;;;2072007;28;20127;-70
2021/08/21 03:41:29;;;;;;;9.50;8.60;;;15.90;99.90;;;;;;2071620;28;20470;-70
2021/08/21 03:42:30;;;;;;;8.80;7.90;;;15.90;99.90;;;;;;2071964;28;20381;-70
2021/08/21 03:43:31;;;;;;;9.57;8.60;;;15.90;99.90;;;;;;2070263;28;20029;-70
2021/08/21 03:44:31;;;;;;;9.30;8.32;;;15.90;99.90;;;;;;2069165;28;20065;-70
2021/08/21 03:45:32;;;;;;;10.10;8.23;;;15.90;99.90;;;;;;2070846;28;20040;-70
2021/08/21 03:46:32;;;;;;;9.05;8.10;;;15.90;99.90;;;;;;2072042;28;20359;-70
2021/08/21 03:47:33;;;;;;;11.00;9.57;;;15.90;99.90;;;;;;2071001;28;20041;-70
2021/08/21 03:48:33;;;;;;;9.68;8.73;;;15.80;99.90;;;;;;2071097;28;20164;-70
2021/08/21 03:49:34;;;;;;;10.65;8.57;;;15.80;99.90;;;;;;2072041;28;20053;-70
2021/08/21 03:50:35;;;;;;;8.35;7.50;;;15.80;99.90;;;;;;2071627;28;20021;-70
2021/08/21 03:51:35;;;;;;;8.70;7.82;;;15.80;99.90;;;;;;2071837;28;20030;-70
2021/08/21 03:52:36;;;;;;;8.80;7.85;;;15.80;99.90;;;;;;2071504;28;20101;-70
2021/08/21 03:53:36;;;;;;;7.75;6.93;;;15.80;99.90;;;;;;2071954;28;20018;-70
2021/08/21 03:54:37;;;;;;;8.60;7.60;;;15.80;99.90;;;;;;2071360;28;20026;-70
2021/08/21 03:55:37;;;;;;;9.95;7.55;;;15.80;99.90;;;;;;2071667;28;20026;-70
2021/08/21 03:56:38;;;;;;;11.77;9.38;;;15.80;99.90;;;;;;2071404;28;20056;-70
2021/08/21 03:57:38;;;;;;;17.25;13.20;;;15.80;99.90;;;;;;2071957;28;20119;-70
2021/08/21 03:58:39;;;;;;;12.45;11.13;;;15.80;99.90;;;;;;2071415;28;20066;-70
2021/08/21 03:59:39;;;;;;;13.55;11.85;;;15.80;99.90;;;;;;2072077;28;20501;-70
2021/08/21 04:00:40;;;;;;;14.32;12.25;;;15.80;99.90;;;;;;2071870;28;20037;-70
2021/08/21 04:01:41;;;;;;;18.92;14.02;;;15.80;99.90;;;;;;2073282;28;20029;-70
2021/08/21 04:02:41;;;;;;;16.10;12.23;;;15.80;99.90;;;;;;2071279;28;20115;-70
2021/08/21 04:03:42;;;;;;;15.88;12.63;;;15.80;99.90;;;;;;2072139;28;20034;-70
2021/08/21 04:04:42;;;;;;;16.25;12.50;;;15.80;99.90;;;;;;2071784;28;20038;-70
2021/08/21 04:05:43;;;;;;;20.73;13.77;;;15.80;99.90;;;;;;2071467;28;20524;-70
2021/08/21 04:06:43;;;;;;;18.17;14.60;;;15.80;99.90;;;;;;2071690;28;20487;-70
2021/08/21 04:07:44;;;;;;;18.55;14.55;;;15.80;99.90;;;;;;2071609;28;20026;-70
2021/08/21 04:08:44;;;;;;;13.63;12.23;;;15.80;99.90;;;;;;2071153;28;20084;-70
2021/08/21 04:09:45;;;;;;;14.95;12.10;;;15.80;99.90;;;;;;2071349;28;20025;-70
2021/08/21 04:10:46;;;;;;;16.33;12.70;;;15.80;99.90;;;;;;2071325;28;20022;-70
2021/08/21 04:11:46;;;;;;;15.45;11.50;;;15.80;99.90;;;;;;2071588;28;20498;-70
2021/08/21 04:12:47;;;;;;;13.45;11.75;;;15.80;99.90;;;;;;2071343;28;20050;-70
2021/08/21 04:13:47;;;;;;;17.83;13.50;;;15.80;99.90;;;;;;2071678;28;20025;-70
2021/08/21 04:14:48;;;;;;;16.73;13.90;;;15.80;99.90;;;;;;2071344;28;20701;-70
2021/08/21 04:15:48;;;;;;;20.23;14.15;;;15.80;99.90;;;;;;2075572;28;20068;-70
2021/08/21 04:16:49;;;;;;;15.25;13.20;;;15.90;99.90;;;;;;2070791;28;20033;-70
2021/08/21 04:17:49;;;;;;;17.98;14.63;;;15.90;99.90;;;;;;2070922;28;20048;-70
2021/08/21 04:18:50;;;;;;;19.80;15.70;;;15.90;99.90;;;;;;2071666;28;20045;-70
2021/08/21 04:19:51;;;;;;;19.33;15.10;;;15.90;99.90;;;;;;2068882;28;20101;-70
2021/08/21 04:20:51;;;;;;;18.80;14.90;;;15.90;99.90;;;;;;2072023;28;20120;-70
2021/08/21 04:21:52;;;;;;;19.27;14.82;;;15.90;99.90;;;;;;2071575;28;20038;-70
2021/08/21 04:22:52;;;;;;;19.23;14.90;;;15.90;99.90;;;;;;2071320;28;20406;-70
2021/08/21 04:23:53;;;;;;;18.98;15.07;;;15.90;99.90;;;;;;2071373;28;20048;-71
2021/08/21 04:24:53;;;;;;;17.98;13.82;;;15.90;99.90;;;;;;2071737;28;20018;-70
2021/08/21 04:25:59;;;;;;;17.10;14.27;;;15.90;99.90;;;;;;2071459;28;20026;-70
2021/08/21 04:27:00;;;;;;;17.58;13.57;;;15.90;99.90;;;;;;2071512;28;20030;-70
2021/08/21 04:28:00;;;;;;;19.92;14.25;;;15.90;99.90;;;;;;2071459;28;20040;-70
2021/08/21 04:29:01;;;;;;;17.65;13.10;;;15.90;99.90;;;;;;2072252;28;20034;-70
2021/08/21 04:30:02;;;;;;;14.85;13.35;;;15.90;99.90;;;;;;2079697;28;20095;-70
2021/08/21 04:31:03;;;;;;;17.10;13.43;;;16.00;99.90;;;;;;2065728;28;20041;-70
2021/08/21 04:32:04;;;;;;;13.20;11.80;;;16.00;99.90;;;;;;2063651;28;20489;-70
2021/08/21 04:33:05;;;;;;;17.45;13.73;;;16.00;99.90;;;;;;2066339;28;20462;-70
2021/08/21 04:34:06;;;;;;;17.05;13.30;;;16.00;99.90;;;;;;2067012;28;20378;-70
2021/08/21 04:35:06;;;;;;;16.38;13.15;;;16.00;99.90;;;;;;2071781;28;20028;-70
2021/08/21 04:36:07;;;;;;;15.95;12.82;;;16.00;99.90;;;;;;2071461;28;20091;-70
2021/08/21 04:37:07;;;;;;;13.93;11.38;;;16.00;99.90;;;;;;2071376;28;20378;-70
2021/08/21 04:38:08;;;;;;;12.88;11.48;;;16.00;99.90;;;;;;2071717;28;20026;-70
2021/08/21 04:39:08;;;;;;;15.07;11.80;;;16.00;99.90;;;;;;2071449;28;20378;-70
2021/08/21 04:40:10;;;;;;;13.52;11.82;;;16.10;99.90;;;;;;2071532;28;20060;-70
2021/08/21 04:41:11;;;;;;;14.55;11.57;;;16.00;99.90;;;;;;2071874;28;20029;-70
2021/08/21 04:42:11;;;;;;;12.20;10.93;;;16.10;99.90;;;;;;2071140;28;20037;-70
2021/08/21 04:43:13;;;;;;;13.77;10.55;;;16.10;99.90;;;;;;2074424;28;20032;-70
2021/08/21 04:44:13;;;;;;;13.40;11.10;;;16.10;99.90;;;;;;2073716;28;20068;-70
2021/08/21 04:45:14;;;;;;;13.95;11.88;;;16.10;99.90;;;;;;2068358;28;20025;-70
2021/08/21 04:46:14;;;;;;;13.80;12.18;;;16.10;99.90;;;;;;2071310;28;20075;-70
2021/08/21 04:47:15;;;;;;;17.45;14.43;;;16.10;99.90;;;;;;2071201;28;20022;-70
2021/08/21 04:48:15;;;;;;;14.80;12.45;;;16.10;99.90;;;;;;2071697;28;20022;-70
2021/08/21 04:49:16;;;;;;;16.48;12.60;;;16.20;99.90;;;;;;2071835;28;20025;-70
2021/08/21 04:50:17;;;;;;;15.88;13.63;;;16.10;99.90;;;;;;2071489;28;20057;-70
2021/08/21 04:51:17;;;;;;;17.88;13.23;;;16.20;99.90;;;;;;2071363;28;20058;-70
2021/08/21 04:52:18;;;;;;;15.13;12.93;;;16.20;99.90;;;;;;2070476;28;20056;-70
2021/08/21 04:53:18;;;;;;;16.15;14.45;;;16.20;99.90;;;;;;2071393;28;20017;-70
2021/08/21 04:54:19;;;;;;;17.80;14.60;;;16.20;99.90;;;;;;2071526;28;20100;-70
2021/08/21 04:55:19;;;;;;;18.38;14.68;;;16.30;99.90;;;;;;2071513;28;21020;-70
2021/08/21 04:56:20;;;;;;;19.05;13.90;;;16.30;99.90;;;;;;2071721;28;20022;-70
2021/08/21 04:57:20;;;;;;;15.35;13.88;;;16.30;99.90;;;;;;2073032;28;20497;-70
2021/08/21 04:58:21;;;;;;;16.35;13.43;;;16.30;99.90;;;;;;2069865;28;20022;-70
2021/08/21 04:59:21;;;;;;;18.80;15.23;;;16.30;99.90;;;;;;2068810;28;20030;-70
2021/08/21 05:00:22;;;;;;;16.48;14.77;;;16.40;99.90;;;;;;2070541;28;20061;-70
2021/08/21 05:01:22;;;;;;;20.33;14.80;;;16.40;99.90;;;;;;2070703;28;20100;-70
2021/08/21 05:02:23;;;;;;;16.52;13.52;;;16.40;99.90;;;;;;2071410;28;20397;-70
2021/08/21 05:03:24;;;;;;;16.92;14.88;;;16.40;99.90;;;;;;2070937;28;20033;-70
2021/08/21 05:04:24;;;;;;;15.05;13.45;;;16.50;99.90;;;;;;2071784;28;20786;-71
2021/08/21 05:05:26;;;;;;;15.27;13.68;;;16.50;99.90;;;;;;2071343;28;20029;-70
2021/08/21 05:06:27;;;;;;;18.27;14.32;;;16.50;99.90;;;;;;2071406;28;20030;-70
2021/08/21 05:07:27;;;;;;;17.40;13.85;;;16.50;99.90;;;;;;2071399;28;20041;-70
2021/08/21 05:08:28;;;;;;;17.02;13.38;;;16.50;99.90;;;;;;2071750;28;20022;-70
2021/08/21 05:09:28;;;;;;;18.05;12.93;;;16.50;99.90;;;;;;2071442;28;20052;-70
2021/08/21 05:10:29;;;;;;;15.57;13.57;;;16.60;99.90;;;;;;2073377;28;20033;-70
2021/08/21 05:11:30;;;;;;;17.38;12.75;;;16.60;99.90;;;;;;2072008;28;20050;-70
2021/08/21 05:12:30;;;;;;;13.48;11.63;;;16.60;99.90;;;;;;2066925;28;20042;-70
2021/08/21 05:13:31;;;;;;;14.63;12.52;;;16.60;99.90;;;;;;2070243;28;20104;-70
2021/08/21 05:14:32;;;;;;;16.80;12.70;;;16.70;99.90;;;;;;2071645;28;20030;-70
2021/08/21 05:15:33;;;;;;;14.32;12.82;;;16.70;99.90;;;;;;2071665;28;20022;-70